sensor_id;sensor_type;location;lat;lon;timestamp;P1;durP1;ratioP1;P2;durP2;ratioP2
75649;SDS011;64245;51.282;22.494;2024-02-16T00:00:06;4.65;;;2.42;;
75649;SDS011;64245;51.282;22.494;2024-02-16T00:02:53;7.20;;;3.25;;
75649;SDS011;64245;51.282;22.494;2024-02-16T00:05:19;10.35;;;4.65;;
75649;SDS011;64245;51.282;22.494;2024-02-16T00:07:45;7.85;;;3.05;;
75649;SDS011;64245;51.282;22.494;2024-02-16T00:10:11;3.33;;;2.70;;
75649;SDS011;64245;51.282;22.494;2024-02-16T00:12:38;10.38;;;3.22;;
75649;SDS011;64245;51.282;22.494;2024-02-16T00:15:05;6.10;;;2.30;;
75649;SDS011;64245;51.282;22.494;2024-02-16T00:17:32;10.32;;;4.38;;
75649;SDS011;64245;51.282;22.494;2024-02-16T00:19:58;8.48;;;3.67;;
75649;SDS011;64245;51.282;22.494;2024-02-16T00:22:25;7.43;;;2.85;;
75649;SDS011;64245;51.282;22.494;2024-02-16T00:24:51;8.65;;;3.10;;
75649;SDS011;64245;51.282;22.494;2024-02-16T00:27:17;4.88;;;2.88;;
75649;SDS011;64245;51.282;22.494;2024-02-16T00:29:44;5.68;;;3.20;;
75649;SDS011;64245;51.282;22.494;2024-02-16T00:32:12;7.03;;;3.22;;
75649;SDS011;64245;51.282;22.494;2024-02-16T00:34:38;4.70;;;3.35;;
75649;SDS011;64245;51.282;22.494;2024-02-16T00:37:05;6.30;;;2.78;;
75649;SDS011;64245;51.282;22.494;2024-02-16T00:39:38;10.40;;;5.07;;
75649;SDS011;64245;51.282;22.494;2024-02-16T00:42:08;8.80;;;3.97;;
75649;SDS011;64245;51.282;22.494;2024-02-16T00:44:34;5.90;;;3.45;;
75649;SDS011;64245;51.282;22.494;2024-02-16T00:47:00;11.55;;;5.30;;
75649;SDS011;64245;51.282;22.494;2024-02-16T00:49:26;5.28;;;3.50;;
75649;SDS011;64245;51.282;22.494;2024-02-16T00:51:52;13.18;;;6.05;;
75649;SDS011;64245;51.282;22.494;2024-02-16T00:54:18;9.18;;;4.88;;
75649;SDS011;64245;51.282;22.494;2024-02-16T00:56:44;14.20;;;5.07;;
75649;SDS011;64245;51.282;22.494;2024-02-16T00:59:12;8.85;;;4.60;;
75649;SDS011;64245;51.282;22.494;2024-02-16T01:01:38;11.52;;;5.45;;
75649;SDS011;64245;51.282;22.494;2024-02-16T01:04:06;6.40;;;2.88;;
75649;SDS011;64245;51.282;22.494;2024-02-16T01:06:35;4.70;;;2.70;;
75649;SDS011;64245;51.282;22.494;2024-02-16T01:09:01;6.90;;;3.38;;
75649;SDS011;64245;51.282;22.494;2024-02-16T01:11:27;8.10;;;3.60;;
75649;SDS011;64245;51.282;22.494;2024-02-16T01:13:53;6.10;;;3.13;;
75649;SDS011;64245;51.282;22.494;2024-02-16T01:16:19;5.78;;;2.53;;
75649;SDS011;64245;51.282;22.494;2024-02-16T01:18:45;3.95;;;2.22;;
75649;SDS011;64245;51.282;22.494;2024-02-16T01:21:13;4.30;;;2.42;;
75649;SDS011;64245;51.282;22.494;2024-02-16T01:23:39;9.23;;;3.65;;
75649;SDS011;64245;51.282;22.494;2024-02-16T01:26:13;7.05;;;3.15;;
75649;SDS011;64245;51.282;22.494;2024-02-16T01:28:41;6.85;;;3.33;;
75649;SDS011;64245;51.282;22.494;2024-02-16T01:31:12;7.22;;;3.42;;
75649;SDS011;64245;51.282;22.494;2024-02-16T01:33:38;3.90;;;2.17;;
75649;SDS011;64245;51.282;22.494;2024-02-16T01:36:07;5.82;;;2.33;;
75649;SDS011;64245;51.282;22.494;2024-02-16T01:38:33;8.60;;;3.10;;
75649;SDS011;64245;51.282;22.494;2024-02-16T01:41:06;5.70;;;2.70;;
75649;SDS011;64245;51.282;22.494;2024-02-16T01:43:34;6.80;;;3.17;;
75649;SDS011;64245;51.282;22.494;2024-02-16T01:46:06;7.00;;;3.95;;
75649;SDS011;64245;51.282;22.494;2024-02-16T01:48:39;3.80;;;2.63;;
75649;SDS011;64245;51.282;22.494;2024-02-16T01:51:11;9.45;;;3.42;;
75649;SDS011;64245;51.282;22.494;2024-02-16T01:53:41;5.43;;;3.38;;
75649;SDS011;64245;51.282;22.494;2024-02-16T01:56:14;6.78;;;2.78;;
75649;SDS011;64245;51.282;22.494;2024-02-16T01:58:46;5.07;;;2.80;;
75649;SDS011;64245;51.282;22.494;2024-02-16T02:01:27;6.43;;;2.70;;
75649;SDS011;64245;51.282;22.494;2024-02-16T02:03:57;5.70;;;2.47;;
75649;SDS011;64245;51.282;22.494;2024-02-16T02:06:34;3.50;;;2.72;;
75649;SDS011;64245;51.282;22.494;2024-02-16T02:12:08;3.92;;;2.22;;
75649;SDS011;64245;51.282;22.494;2024-02-16T02:14:44;6.15;;;2.17;;
75649;SDS011;64245;51.282;22.494;2024-02-16T02:17:15;7.22;;;2.38;;
75649;SDS011;64245;51.282;22.494;2024-02-16T02:19:46;7.50;;;2.97;;
75649;SDS011;64245;51.282;22.494;2024-02-16T02:22:16;4.95;;;2.33;;
75649;SDS011;64245;51.282;22.494;2024-02-16T02:24:43;2.25;;;1.95;;
75649;SDS011;64245;51.282;22.494;2024-02-16T02:27:14;4.30;;;1.90;;
75649;SDS011;64245;51.282;22.494;2024-02-16T02:32:13;3.53;;;1.80;;
75649;SDS011;64245;51.282;22.494;2024-02-16T02:34:39;5.53;;;2.55;;
75649;SDS011;64245;51.282;22.494;2024-02-16T02:37:09;8.38;;;3.13;;
75649;SDS011;64245;51.282;22.494;2024-02-16T02:39:34;4.03;;;2.22;;
75649;SDS011;64245;51.282;22.494;2024-02-16T02:42:01;3.22;;;2.45;;
75649;SDS011;64245;51.282;22.494;2024-02-16T02:44:29;7.18;;;2.92;;
75649;SDS011;64245;51.282;22.494;2024-02-16T02:46:57;3.72;;;2.47;;
75649;SDS011;64245;51.282;22.494;2024-02-16T02:49:22;5.63;;;2.90;;
75649;SDS011;64245;51.282;22.494;2024-02-16T02:51:48;7.60;;;2.55;;
75649;SDS011;64245;51.282;22.494;2024-02-16T02:54:14;4.57;;;1.95;;
75649;SDS011;64245;51.282;22.494;2024-02-16T02:56:40;4.63;;;2.60;;
75649;SDS011;64245;51.282;22.494;2024-02-16T02:59:06;6.07;;;3.22;;
75649;SDS011;64245;51.282;22.494;2024-02-16T03:01:32;6.07;;;3.15;;
75649;SDS011;64245;51.282;22.494;2024-02-16T03:03:58;5.55;;;3.15;;
75649;SDS011;64245;51.282;22.494;2024-02-16T03:06:25;2.58;;;2.28;;
75649;SDS011;64245;51.282;22.494;2024-02-16T03:08:51;9.02;;;3.67;;
75649;SDS011;64245;51.282;22.494;2024-02-16T03:11:17;7.72;;;3.17;;
75649;SDS011;64245;51.282;22.494;2024-02-16T03:13:43;7.28;;;3.88;;
75649;SDS011;64245;51.282;22.494;2024-02-16T03:16:09;4.45;;;3.80;;
75649;SDS011;64245;51.282;22.494;2024-02-16T03:18:34;4.60;;;3.42;;
75649;SDS011;64245;51.282;22.494;2024-02-16T03:21:01;3.92;;;3.10;;
75649;SDS011;64245;51.282;22.494;2024-02-16T03:23:27;6.57;;;2.72;;
75649;SDS011;64245;51.282;22.494;2024-02-16T03:25:53;8.77;;;3.35;;
75649;SDS011;64245;51.282;22.494;2024-02-16T03:28:19;5.32;;;2.35;;
75649;SDS011;64245;51.282;22.494;2024-02-16T03:30:46;6.72;;;3.33;;
75649;SDS011;64245;51.282;22.494;2024-02-16T03:33:12;5.25;;;3.83;;
75649;SDS011;64245;51.282;22.494;2024-02-16T03:35:39;14.00;;;6.15;;
75649;SDS011;64245;51.282;22.494;2024-02-16T03:38:08;11.23;;;4.75;;
75649;SDS011;64245;51.282;22.494;2024-02-16T03:40:34;14.57;;;5.88;;
75649;SDS011;64245;51.282;22.494;2024-02-16T03:43:00;7.78;;;4.95;;
75649;SDS011;64245;51.282;22.494;2024-02-16T03:45:26;10.13;;;4.47;;
75649;SDS011;64245;51.282;22.494;2024-02-16T03:47:55;11.40;;;4.90;;
75649;SDS011;64245;51.282;22.494;2024-02-16T03:50:26;9.77;;;4.05;;
75649;SDS011;64245;51.282;22.494;2024-02-16T03:52:52;15.35;;;6.10;;
75649;SDS011;64245;51.282;22.494;2024-02-16T03:55:21;12.88;;;4.90;;
75649;SDS011;64245;51.282;22.494;2024-02-16T03:57:50;16.63;;;5.97;;
75649;SDS011;64245;51.282;22.494;2024-02-16T04:00:16;9.90;;;4.60;;
75649;SDS011;64245;51.282;22.494;2024-02-16T04:02:44;14.88;;;4.97;;
75649;SDS011;64245;51.282;22.494;2024-02-16T04:05:13;11.45;;;5.80;;
75649;SDS011;64245;51.282;22.494;2024-02-16T04:07:41;10.50;;;5.68;;
75649;SDS011;64245;51.282;22.494;2024-02-16T04:10:10;7.57;;;4.88;;
75649;SDS011;64245;51.282;22.494;2024-02-16T04:12:36;9.48;;;5.28;;
75649;SDS011;64245;51.282;22.494;2024-02-16T04:15:02;4.72;;;2.97;;
75649;SDS011;64245;51.282;22.494;2024-02-16T04:17:31;12.37;;;5.13;;
75649;SDS011;64245;51.282;22.494;2024-02-16T04:19:58;16.33;;;7.70;;
75649;SDS011;64245;51.282;22.494;2024-02-16T04:22:23;14.93;;;4.88;;
75649;SDS011;64245;51.282;22.494;2024-02-16T04:24:50;8.25;;;4.53;;
75649;SDS011;64245;51.282;22.494;2024-02-16T04:27:15;14.30;;;5.85;;
75649;SDS011;64245;51.282;22.494;2024-02-16T04:29:42;6.55;;;3.97;;
75649;SDS011;64245;51.282;22.494;2024-02-16T04:32:08;10.90;;;2.90;;
75649;SDS011;64245;51.282;22.494;2024-02-16T04:34:34;6.03;;;5.15;;
75649;SDS011;64245;51.282;22.494;2024-02-16T04:37:00;8.38;;;3.67;;
75649;SDS011;64245;51.282;22.494;2024-02-16T04:39:28;7.88;;;3.45;;
75649;SDS011;64245;51.282;22.494;2024-02-16T04:41:55;12.85;;;3.90;;
75649;SDS011;64245;51.282;22.494;2024-02-16T04:44:21;12.43;;;4.28;;
75649;SDS011;64245;51.282;22.494;2024-02-16T04:46:47;10.52;;;4.20;;
75649;SDS011;64245;51.282;22.494;2024-02-16T04:49:17;7.28;;;4.28;;
75649;SDS011;64245;51.282;22.494;2024-02-16T04:51:43;3.22;;;2.88;;
75649;SDS011;64245;51.282;22.494;2024-02-16T04:54:09;5.93;;;2.88;;
75649;SDS011;64245;51.282;22.494;2024-02-16T04:56:35;5.55;;;4.07;;
75649;SDS011;64245;51.282;22.494;2024-02-16T04:59:01;8.45;;;4.60;;
75649;SDS011;64245;51.282;22.494;2024-02-16T05:01:29;8.13;;;3.22;;
75649;SDS011;64245;51.282;22.494;2024-02-16T05:04:00;6.80;;;3.30;;
75649;SDS011;64245;51.282;22.494;2024-02-16T05:06:27;16.00;;;4.55;;
75649;SDS011;64245;51.282;22.494;2024-02-16T05:08:55;17.40;;;6.70;;
75649;SDS011;64245;51.282;22.494;2024-02-16T05:11:22;8.23;;;5.60;;
75649;SDS011;64245;51.282;22.494;2024-02-16T05:13:50;10.05;;;3.53;;
75649;SDS011;64245;51.282;22.494;2024-02-16T05:16:16;11.40;;;4.63;;
75649;SDS011;64245;51.282;22.494;2024-02-16T05:18:42;6.80;;;4.80;;
75649;SDS011;64245;51.282;22.494;2024-02-16T05:21:08;6.28;;;4.13;;
75649;SDS011;64245;51.282;22.494;2024-02-16T05:23:35;5.40;;;3.45;;
75649;SDS011;64245;51.282;22.494;2024-02-16T05:26:01;9.13;;;3.75;;
75649;SDS011;64245;51.282;22.494;2024-02-16T05:28:27;6.85;;;4.90;;
75649;SDS011;64245;51.282;22.494;2024-02-16T05:30:52;5.85;;;4.38;;
75649;SDS011;64245;51.282;22.494;2024-02-16T05:33:19;7.18;;;3.55;;
75649;SDS011;64245;51.282;22.494;2024-02-16T05:35:45;5.53;;;3.58;;
75649;SDS011;64245;51.282;22.494;2024-02-16T05:38:20;5.90;;;4.22;;
75649;SDS011;64245;51.282;22.494;2024-02-16T05:41:00;3.35;;;2.95;;
75649;SDS011;64245;51.282;22.494;2024-02-16T05:43:26;8.27;;;3.55;;
75649;SDS011;64245;51.282;22.494;2024-02-16T05:45:52;11.50;;;5.40;;
75649;SDS011;64245;51.282;22.494;2024-02-16T05:48:18;9.75;;;4.30;;
75649;SDS011;64245;51.282;22.494;2024-02-16T05:50:47;6.65;;;3.70;;
75649;SDS011;64245;51.282;22.494;2024-02-16T05:53:13;3.78;;;3.28;;
75649;SDS011;64245;51.282;22.494;2024-02-16T05:55:39;9.35;;;4.80;;
75649;SDS011;64245;51.282;22.494;2024-02-16T05:58:08;6.18;;;4.30;;
75649;SDS011;64245;51.282;22.494;2024-02-16T06:00:34;11.95;;;5.22;;
75649;SDS011;64245;51.282;22.494;2024-02-16T06:03:00;18.55;;;8.18;;
75649;SDS011;64245;51.282;22.494;2024-02-16T06:05:26;11.35;;;7.50;;
75649;SDS011;64245;51.282;22.494;2024-02-16T06:07:57;11.38;;;6.18;;
75649;SDS011;64245;51.282;22.494;2024-02-16T06:10:25;12.48;;;4.72;;
75649;SDS011;64245;51.282;22.494;2024-02-16T06:12:52;6.03;;;4.38;;
75649;SDS011;64245;51.282;22.494;2024-02-16T06:15:17;17.15;;;4.72;;
75649;SDS011;64245;51.282;22.494;2024-02-16T06:17:43;5.32;;;4.05;;
75649;SDS011;64245;51.282;22.494;2024-02-16T06:20:09;10.05;;;5.13;;
75649;SDS011;64245;51.282;22.494;2024-02-16T06:22:37;6.55;;;2.83;;
75649;SDS011;64245;51.282;22.494;2024-02-16T06:25:03;5.35;;;3.45;;
75649;SDS011;64245;51.282;22.494;2024-02-16T06:27:29;4.80;;;3.60;;
75649;SDS011;64245;51.282;22.494;2024-02-16T06:29:55;7.45;;;4.00;;
75649;SDS011;64245;51.282;22.494;2024-02-16T06:32:21;7.75;;;5.43;;
75649;SDS011;64245;51.282;22.494;2024-02-16T06:34:47;8.38;;;4.63;;
75649;SDS011;64245;51.282;22.494;2024-02-16T06:37:15;10.63;;;6.43;;
75649;SDS011;64245;51.282;22.494;2024-02-16T06:39:40;7.00;;;4.50;;
75649;SDS011;64245;51.282;22.494;2024-02-16T06:42:07;8.63;;;3.83;;
75649;SDS011;64245;51.282;22.494;2024-02-16T06:44:33;5.57;;;3.33;;
75649;SDS011;64245;51.282;22.494;2024-02-16T06:46:59;7.82;;;4.38;;
75649;SDS011;64245;51.282;22.494;2024-02-16T06:49:25;15.70;;;6.53;;
75649;SDS011;64245;51.282;22.494;2024-02-16T06:51:51;11.30;;;5.20;;
75649;SDS011;64245;51.282;22.494;2024-02-16T06:54:16;5.43;;;4.85;;
75649;SDS011;64245;51.282;22.494;2024-02-16T06:56:42;7.25;;;4.43;;
75649;SDS011;64245;51.282;22.494;2024-02-16T06:59:09;14.68;;;4.70;;
75649;SDS011;64245;51.282;22.494;2024-02-16T07:01:35;17.92;;;5.68;;
75649;SDS011;64245;51.282;22.494;2024-02-16T07:04:01;9.55;;;5.03;;
75649;SDS011;64245;51.282;22.494;2024-02-16T07:06:27;10.27;;;4.03;;
75649;SDS011;64245;51.282;22.494;2024-02-16T07:08:53;5.78;;;4.00;;
75649;SDS011;64245;51.282;22.494;2024-02-16T07:11:19;13.98;;;4.57;;
75649;SDS011;64245;51.282;22.494;2024-02-16T07:13:46;16.02;;;5.10;;
75649;SDS011;64245;51.282;22.494;2024-02-16T07:16:13;6.70;;;2.75;;
75649;SDS011;64245;51.282;22.494;2024-02-16T07:18:39;8.27;;;3.47;;
75649;SDS011;64245;51.282;22.494;2024-02-16T07:21:05;6.47;;;5.03;;
75649;SDS011;64245;51.282;22.494;2024-02-16T07:23:31;4.32;;;3.67;;
75649;SDS011;64245;51.282;22.494;2024-02-16T07:25:57;10.13;;;4.32;;
75649;SDS011;64245;51.282;22.494;2024-02-16T07:28:23;5.72;;;3.65;;
75649;SDS011;64245;51.282;22.494;2024-02-16T07:30:51;11.25;;;5.35;;
75649;SDS011;64245;51.282;22.494;2024-02-16T07:33:20;5.47;;;3.88;;
75649;SDS011;64245;51.282;22.494;2024-02-16T07:35:51;13.48;;;3.92;;
75649;SDS011;64245;51.282;22.494;2024-02-16T07:38:20;6.07;;;4.15;;
75649;SDS011;64245;51.282;22.494;2024-02-16T07:40:47;6.90;;;4.85;;
75649;SDS011;64245;51.282;22.494;2024-02-16T07:43:18;7.28;;;3.90;;
75649;SDS011;64245;51.282;22.494;2024-02-16T07:45:50;8.98;;;4.38;;
75649;SDS011;64245;51.282;22.494;2024-02-16T07:48:22;8.20;;;5.55;;
75649;SDS011;64245;51.282;22.494;2024-02-16T07:50:48;8.63;;;4.65;;
75649;SDS011;64245;51.282;22.494;2024-02-16T07:53:17;10.32;;;5.80;;
75649;SDS011;64245;51.282;22.494;2024-02-16T07:55:43;8.10;;;4.75;;
75649;SDS011;64245;51.282;22.494;2024-02-16T07:58:09;7.68;;;3.88;;
75649;SDS011;64245;51.282;22.494;2024-02-16T08:00:35;11.15;;;5.70;;
75649;SDS011;64245;51.282;22.494;2024-02-16T08:03:01;9.23;;;4.40;;
75649;SDS011;64245;51.282;22.494;2024-02-16T08:05:28;7.25;;;3.35;;
75649;SDS011;64245;51.282;22.494;2024-02-16T08:07:54;10.45;;;5.15;;
75649;SDS011;64245;51.282;22.494;2024-02-16T08:10:21;5.10;;;3.85;;
75649;SDS011;64245;51.282;22.494;2024-02-16T08:12:50;6.97;;;4.63;;
75649;SDS011;64245;51.282;22.494;2024-02-16T08:15:16;8.55;;;4.35;;
75649;SDS011;64245;51.282;22.494;2024-02-16T08:17:48;14.70;;;3.80;;
75649;SDS011;64245;51.282;22.494;2024-02-16T08:20:15;4.18;;;2.88;;
75649;SDS011;64245;51.282;22.494;2024-02-16T08:22:41;7.00;;;3.75;;
75649;SDS011;64245;51.282;22.494;2024-02-16T08:25:08;8.48;;;4.65;;
75649;SDS011;64245;51.282;22.494;2024-02-16T08:27:33;7.68;;;4.03;;
75649;SDS011;64245;51.282;22.494;2024-02-16T08:30:00;9.35;;;3.80;;
75649;SDS011;64245;51.282;22.494;2024-02-16T08:32:28;7.28;;;3.42;;
75649;SDS011;64245;51.282;22.494;2024-02-16T08:34:54;5.82;;;4.63;;
75649;SDS011;64245;51.282;22.494;2024-02-16T08:37:21;9.45;;;4.80;;
75649;SDS011;64245;51.282;22.494;2024-02-16T08:39:47;6.50;;;4.00;;
75649;SDS011;64245;51.282;22.494;2024-02-16T08:42:13;4.55;;;2.80;;
75649;SDS011;64245;51.282;22.494;2024-02-16T08:44:39;8.85;;;2.58;;
75649;SDS011;64245;51.282;22.494;2024-02-16T08:47:06;6.65;;;3.65;;
75649;SDS011;64245;51.282;22.494;2024-02-16T08:49:33;8.05;;;3.83;;
75649;SDS011;64245;51.282;22.494;2024-02-16T08:52:00;5.50;;;3.35;;
75649;SDS011;64245;51.282;22.494;2024-02-16T08:54:26;5.40;;;3.13;;
75649;SDS011;64245;51.282;22.494;2024-02-16T08:56:55;3.60;;;2.90;;
75649;SDS011;64245;51.282;22.494;2024-02-16T08:59:21;3.70;;;2.60;;
75649;SDS011;64245;51.282;22.494;2024-02-16T09:01:47;8.82;;;3.42;;
75649;SDS011;64245;51.282;22.494;2024-02-16T09:04:15;3.83;;;2.53;;
75649;SDS011;64245;51.282;22.494;2024-02-16T09:06:41;5.07;;;2.90;;
75649;SDS011;64245;51.282;22.494;2024-02-16T09:09:07;5.45;;;3.00;;
75649;SDS011;64245;51.282;22.494;2024-02-16T09:11:33;5.80;;;2.55;;
75649;SDS011;64245;51.282;22.494;2024-02-16T09:14:00;7.32;;;3.33;;
75649;SDS011;64245;51.282;22.494;2024-02-16T09:16:29;3.88;;;2.03;;
75649;SDS011;64245;51.282;22.494;2024-02-16T09:18:57;5.70;;;3.03;;
75649;SDS011;64245;51.282;22.494;2024-02-16T09:21:25;6.30;;;3.00;;
75649;SDS011;64245;51.282;22.494;2024-02-16T09:23:54;4.60;;;2.90;;
75649;SDS011;64245;51.282;22.494;2024-02-16T09:26:26;4.72;;;2.78;;
75649;SDS011;64245;51.282;22.494;2024-02-16T09:28:58;4.57;;;3.05;;
75649;SDS011;64245;51.282;22.494;2024-02-16T09:31:25;4.95;;;3.28;;
75649;SDS011;64245;51.282;22.494;2024-02-16T09:33:51;5.60;;;2.83;;
75649;SDS011;64245;51.282;22.494;2024-02-16T09:36:19;6.03;;;2.63;;
75649;SDS011;64245;51.282;22.494;2024-02-16T09:38:47;8.05;;;3.60;;
75649;SDS011;64245;51.282;22.494;2024-02-16T09:41:16;5.55;;;2.83;;
75649;SDS011;64245;51.282;22.494;2024-02-16T09:43:42;7.00;;;3.40;;
75649;SDS011;64245;51.282;22.494;2024-02-16T09:46:08;7.20;;;2.75;;
75649;SDS011;64245;51.282;22.494;2024-02-16T09:48:35;7.05;;;3.00;;
75649;SDS011;64245;51.282;22.494;2024-02-16T09:51:01;7.55;;;2.42;;
75649;SDS011;64245;51.282;22.494;2024-02-16T09:53:31;8.35;;;3.47;;
75649;SDS011;64245;51.282;22.494;2024-02-16T09:55:57;6.22;;;2.88;;
75649;SDS011;64245;51.282;22.494;2024-02-16T09:58:23;8.75;;;2.97;;
75649;SDS011;64245;51.282;22.494;2024-02-16T10:00:54;6.97;;;3.05;;
75649;SDS011;64245;51.282;22.494;2024-02-16T10:03:26;6.57;;;4.03;;
75649;SDS011;64245;51.282;22.494;2024-02-16T10:06:09;6.60;;;3.15;;
75649;SDS011;64245;51.282;22.494;2024-02-16T10:08:47;6.13;;;3.35;;
75649;SDS011;64245;51.282;22.494;2024-02-16T10:11:15;5.28;;;2.75;;
75649;SDS011;64245;51.282;22.494;2024-02-16T10:13:41;7.53;;;3.10;;
75649;SDS011;64245;51.282;22.494;2024-02-16T10:16:07;9.25;;;3.63;;
75649;SDS011;64245;51.282;22.494;2024-02-16T10:18:36;5.90;;;3.15;;
75649;SDS011;64245;51.282;22.494;2024-02-16T10:21:02;5.15;;;2.72;;
75649;SDS011;64245;51.282;22.494;2024-02-16T10:23:29;4.72;;;2.35;;
75649;SDS011;64245;51.282;22.494;2024-02-16T10:25:55;7.18;;;3.72;;
75649;SDS011;64245;51.282;22.494;2024-02-16T10:28:21;6.90;;;3.65;;
75649;SDS011;64245;51.282;22.494;2024-02-16T10:30:56;5.78;;;3.03;;
75649;SDS011;64245;51.282;22.494;2024-02-16T10:33:25;4.70;;;2.88;;
75649;SDS011;64245;51.282;22.494;2024-02-16T10:35:53;5.35;;;3.65;;
75649;SDS011;64245;51.282;22.494;2024-02-16T10:38:22;4.93;;;2.88;;
75649;SDS011;64245;51.282;22.494;2024-02-16T10:40:48;5.47;;;3.28;;
75649;SDS011;64245;51.282;22.494;2024-02-16T10:45:43;3.42;;;2.50;;
75649;SDS011;64245;51.282;22.494;2024-02-16T10:48:10;7.00;;;2.72;;
75649;SDS011;64245;51.282;22.494;2024-02-16T10:50:37;7.65;;;3.47;;
75649;SDS011;64245;51.282;22.494;2024-02-16T10:53:25;8.40;;;3.20;;
75649;SDS011;64245;51.282;22.494;2024-02-16T10:55:52;7.03;;;2.75;;
75649;SDS011;64245;51.282;22.494;2024-02-16T10:58:18;3.85;;;2.50;;
75649;SDS011;64245;51.282;22.494;2024-02-16T11:00:48;6.60;;;3.38;;
75649;SDS011;64245;51.282;22.494;2024-02-16T11:03:21;7.20;;;4.20;;
75649;SDS011;64245;51.282;22.494;2024-02-16T11:05:51;6.43;;;2.85;;
75649;SDS011;64245;51.282;22.494;2024-02-16T11:08:18;8.10;;;3.38;;
75649;SDS011;64245;51.282;22.494;2024-02-16T11:10:55;6.00;;;3.13;;
75649;SDS011;64245;51.282;22.494;2024-02-16T11:13:22;7.97;;;3.53;;
75649;SDS011;64245;51.282;22.494;2024-02-16T11:15:57;7.18;;;3.17;;
75649;SDS011;64245;51.282;22.494;2024-02-16T11:18:30;5.35;;;3.17;;
75649;SDS011;64245;51.282;22.494;2024-02-16T11:21:00;6.63;;;3.95;;
75649;SDS011;64245;51.282;22.494;2024-02-16T11:23:27;8.52;;;3.47;;
75649;SDS011;64245;51.282;22.494;2024-02-16T11:26:01;4.90;;;3.35;;
75649;SDS011;64245;51.282;22.494;2024-02-16T11:28:31;6.85;;;3.13;;
75649;SDS011;64245;51.282;22.494;2024-02-16T11:30:58;6.47;;;3.35;;
75649;SDS011;64245;51.282;22.494;2024-02-16T11:33:25;4.38;;;2.92;;
75649;SDS011;64245;51.282;22.494;2024-02-16T11:35:53;4.97;;;3.58;;
75649;SDS011;64245;51.282;22.494;2024-02-16T11:40:57;4.28;;;2.90;;
75649;SDS011;64245;51.282;22.494;2024-02-16T11:43:25;6.22;;;3.58;;
75649;SDS011;64245;51.282;22.494;2024-02-16T11:45:51;6.15;;;3.58;;
75649;SDS011;64245;51.282;22.494;2024-02-16T11:48:25;6.82;;;3.72;;
75649;SDS011;64245;51.282;22.494;2024-02-16T11:53:24;8.48;;;4.25;;
75649;SDS011;64245;51.282;22.494;2024-02-16T11:55:50;7.20;;;4.05;;
75649;SDS011;64245;51.282;22.494;2024-02-16T11:58:18;5.75;;;3.38;;
75649;SDS011;64245;51.282;22.494;2024-02-16T12:00:49;9.18;;;4.30;;
75649;SDS011;64245;51.282;22.494;2024-02-16T12:05:49;7.57;;;4.00;;
75649;SDS011;64245;51.282;22.494;2024-02-16T12:08:19;7.22;;;3.75;;
75649;SDS011;64245;51.282;22.494;2024-02-16T12:10:49;6.38;;;3.40;;
75649;SDS011;64245;51.282;22.494;2024-02-16T12:13:19;9.32;;;3.35;;
75649;SDS011;64245;51.282;22.494;2024-02-16T12:15:46;5.93;;;3.17;;
75649;SDS011;64245;51.282;22.494;2024-02-16T12:18:22;6.47;;;3.40;;
75649;SDS011;64245;51.282;22.494;2024-02-16T12:20:59;6.43;;;3.70;;
75649;SDS011;64245;51.282;22.494;2024-02-16T12:23:26;6.57;;;3.22;;
75649;SDS011;64245;51.282;22.494;2024-02-16T12:25:53;6.20;;;3.28;;
75649;SDS011;64245;51.282;22.494;2024-02-16T12:28:21;5.93;;;3.65;;
75649;SDS011;64245;51.282;22.494;2024-02-16T12:30:54;7.28;;;3.63;;
75649;SDS011;64245;51.282;22.494;2024-02-16T12:33:23;6.32;;;3.78;;
75649;SDS011;64245;51.282;22.494;2024-02-16T12:35:50;3.63;;;2.30;;
75649;SDS011;64245;51.282;22.494;2024-02-16T12:38:16;5.03;;;2.58;;
75649;SDS011;64245;51.282;22.494;2024-02-16T12:40:43;5.90;;;3.38;;
75649;SDS011;64245;51.282;22.494;2024-02-16T12:43:09;6.43;;;3.03;;
75649;SDS011;64245;51.282;22.494;2024-02-16T12:45:37;7.97;;;3.70;;
75649;SDS011;64245;51.282;22.494;2024-02-16T12:48:03;6.25;;;3.25;;
75649;SDS011;64245;51.282;22.494;2024-02-16T12:50:29;6.22;;;3.50;;
75649;SDS011;64245;51.282;22.494;2024-02-16T12:52:56;4.35;;;2.97;;
75649;SDS011;64245;51.282;22.494;2024-02-16T12:55:23;8.32;;;3.20;;
75649;SDS011;64245;51.282;22.494;2024-02-16T12:57:49;5.97;;;3.90;;
75649;SDS011;64245;51.282;22.494;2024-02-16T13:00:16;9.38;;;3.75;;
75649;SDS011;64245;51.282;22.494;2024-02-16T13:02:42;8.18;;;4.10;;
75649;SDS011;64245;51.282;22.494;2024-02-16T13:05:08;7.28;;;3.25;;
75649;SDS011;64245;51.282;22.494;2024-02-16T13:07:34;5.55;;;3.63;;
75649;SDS011;64245;51.282;22.494;2024-02-16T13:10:00;6.82;;;3.90;;
75649;SDS011;64245;51.282;22.494;2024-02-16T13:12:26;9.70;;;3.97;;
75649;SDS011;64245;51.282;22.494;2024-02-16T13:14:53;3.55;;;2.75;;
75649;SDS011;64245;51.282;22.494;2024-02-16T13:17:18;6.97;;;3.60;;
75649;SDS011;64245;51.282;22.494;2024-02-16T13:19:44;7.13;;;3.42;;
75649;SDS011;64245;51.282;22.494;2024-02-16T13:22:10;5.93;;;3.00;;
75649;SDS011;64245;51.282;22.494;2024-02-16T13:24:36;5.28;;;2.88;;
75649;SDS011;64245;51.282;22.494;2024-02-16T13:27:02;5.72;;;3.00;;
75649;SDS011;64245;51.282;22.494;2024-02-16T13:29:29;5.35;;;2.83;;
75649;SDS011;64245;51.282;22.494;2024-02-16T13:31:54;4.80;;;2.70;;
75649;SDS011;64245;51.282;22.494;2024-02-16T13:34:20;5.43;;;2.63;;
75649;SDS011;64245;51.282;22.494;2024-02-16T13:36:46;5.82;;;3.00;;
75649;SDS011;64245;51.282;22.494;2024-02-16T13:39:12;4.05;;;2.58;;
75649;SDS011;64245;51.282;22.494;2024-02-16T13:41:39;7.70;;;2.63;;
75649;SDS011;64245;51.282;22.494;2024-02-16T13:44:05;4.30;;;2.60;;
75649;SDS011;64245;51.282;22.494;2024-02-16T13:46:31;4.30;;;2.45;;
75649;SDS011;64245;51.282;22.494;2024-02-16T13:48:57;7.82;;;3.42;;
75649;SDS011;64245;51.282;22.494;2024-02-16T13:51:24;4.32;;;2.72;;
75649;SDS011;64245;51.282;22.494;2024-02-16T13:53:50;6.82;;;2.92;;
75649;SDS011;64245;51.282;22.494;2024-02-16T13:56:17;5.18;;;2.95;;
75649;SDS011;64245;51.282;22.494;2024-02-16T13:58:43;6.18;;;3.30;;
75649;SDS011;64245;51.282;22.494;2024-02-16T14:01:12;4.60;;;2.03;;
75649;SDS011;64245;51.282;22.494;2024-02-16T14:03:42;7.03;;;3.30;;
75649;SDS011;64245;51.282;22.494;2024-02-16T14:06:18;6.18;;;2.95;;
75649;SDS011;64245;51.282;22.494;2024-02-16T14:08:44;6.22;;;3.58;;
75649;SDS011;64245;51.282;22.494;2024-02-16T14:11:17;5.38;;;2.97;;
75649;SDS011;64245;51.282;22.494;2024-02-16T14:13:43;4.97;;;2.80;;
75649;SDS011;64245;51.282;22.494;2024-02-16T14:16:09;4.78;;;2.45;;
75649;SDS011;64245;51.282;22.494;2024-02-16T14:18:37;5.13;;;2.85;;
75649;SDS011;64245;51.282;22.494;2024-02-16T14:21:03;8.65;;;3.47;;
75649;SDS011;64245;51.282;22.494;2024-02-16T14:23:30;7.10;;;3.13;;
75649;SDS011;64245;51.282;22.494;2024-02-16T14:25:55;6.75;;;3.97;;
75649;SDS011;64245;51.282;22.494;2024-02-16T14:28:25;6.00;;;3.83;;
75649;SDS011;64245;51.282;22.494;2024-02-16T14:30:50;9.05;;;3.67;;
75649;SDS011;64245;51.282;22.494;2024-02-16T14:33:16;5.30;;;3.28;;
75649;SDS011;64245;51.282;22.494;2024-02-16T14:35:43;6.85;;;2.88;;
75649;SDS011;64245;51.282;22.494;2024-02-16T14:38:09;6.82;;;3.05;;
75649;SDS011;64245;51.282;22.494;2024-02-16T14:40:38;8.05;;;3.22;;
75649;SDS011;64245;51.282;22.494;2024-02-16T14:43:04;5.65;;;3.72;;
75649;SDS011;64245;51.282;22.494;2024-02-16T14:45:30;5.03;;;2.70;;
75649;SDS011;64245;51.282;22.494;2024-02-16T14:47:57;6.00;;;3.47;;
75649;SDS011;64245;51.282;22.494;2024-02-16T14:50:23;8.48;;;4.50;;